Time;durP1;ratioP1;P1;durP2;ratioP2;P2;SDS_P1;SDS_P2;PMS_P1;PMS_P2;Temp;Humidity;BMP_temperature;BMP_pressure;BME280_temperature;BME280_humidity;BME280_pressure;Samples;Min_cycle;Max_cycle;Signal;HPM_P1;HPM_P2
2023/10/02 05:27:44;;;;;;;0.10;0.10;;;;;;;14.59;59.98;100658.06;5219714;27;20026;-96
2023/10/02 05:30:43;;;;;;;0.22;0.22;;;;;;;14.76;59.98;100662.75;5157168;27;20107;-96
2023/10/02 05:33:37;;;;;;;0.30;0.30;;;;;;;14.54;59.98;100654.75;5175343;27;20067;-96
2023/10/02 05:47:04;;;;;;;;;;;;;;;;;;;;;
2023/10/02 05:50:11;;;;;;;;;;;;;;;;;;;;;
2023/10/02 05:53:30;;;;;;;;;;;;;;;;;;;;;
2023/10/02 05:56:34;;;;;;;0.22;0.22;;;;;;;15.12;60.01;100668.44;5115028;27;20052;-96
2023/10/02 06:06:21;;;;;;;0.32;0.32;;;;;;;15.37;60.02;100679.75;5036400;28;20101;-96
2023/10/02 06:12:30;;;;;;;;;;;;;;;;;;;;;
2023/10/02 06:18:38;;;;;;;0.10;0.10;;;;;;;16.24;60.08;100692.16;5018280;28;20095;-96
2023/10/02 06:21:37;;;;;;;;;;;;;;;;;;;;;
2023/10/02 06:24:51;;;;;;;;;;;;;;;;;;;;;
2023/10/02 06:31:30;;;;;;;0.10;0.10;;;;;;;16.73;60.10;100704.16;5086067;28;20087;-96
2023/10/02 06:34:23;;;;;;;0.05;0.00;;;;;;;17.19;60.12;100702.19;5108498;27;20210;-96
2023/10/02 06:37:28;;;;;;;;;;;;;;;;;;;;;
2023/10/02 06:44:14;;;;;;;;;;;;;;;;;;;;;
2023/10/02 06:47:44;;;;;;;;;;;;;;;;;;;;;
2023/10/02 06:54:43;;;;;;;;;;;;;;;;;;;;;
2023/10/02 07:02:16;;;;;;;;;;;;;;;;;;;;;
2023/10/02 07:22:26;;;;;;;;;;;;;;;;;;;;;
2023/10/02 07:27:59;;;;;;;0.15;0.15;;;;;;;19.70;60.26;100694.22;5088688;28;20100;-94
2023/10/02 07:30:25;;;;;;;0.00;0.00;;;;;;;19.62;60.25;100697.25;5112978;27;20477;-94
2023/10/02 07:32:51;;;;;;;0.52;0.52;;;;;;;19.98;60.27;100700.63;5154988;27;20122;-95
2023/10/02 07:35:21;;;;;;;0.37;0.35;;;;;;;20.05;60.27;100694.06;5155157;27;20085;-95
2023/10/02 07:37:57;;;;;;;2.08;0.85;;;;;;;20.09;60.28;100696.44;5233120;27;20793;-94
2023/10/02 07:40:26;;;;;;;1.02;0.75;;;;;;;20.18;60.28;100693.28;5242627;27;20068;-95
2023/10/02 07:42:52;;;;;;;0.98;0.52;;;;;;;20.22;60.28;100689.53;5241472;27;20069;-94
2023/10/02 07:45:26;;;;;;;1.27;1.17;;;;;;;20.42;60.29;100696.34;5240698;27;20064;-95
2023/10/02 07:50:39;;;;;;;0.03;0.03;;;;;;;20.52;60.29;100700.16;5262047;27;20032;-95
2023/10/02 07:53:05;;;;;;;0.00;0.00;;;;;;;20.74;60.31;100698.91;5241411;27;20074;-94
2023/10/02 07:55:35;;;;;;;0.05;0.05;;;;;;;20.92;60.31;100704.91;5241151;27;20057;-96
2023/10/02 07:58:01;;;;;;;0.40;0.40;;;;;;;20.90;60.31;100705.00;5240593;27;20840;-95
2023/10/02 08:00:38;;;;;;;4.00;0.40;;;;;;;21.00;60.32;100708.78;5241134;27;20072;-95
2023/10/02 08:03:09;;;;;;;0.47;0.47;;;;;;;21.17;60.33;100698.97;5243047;27;20153;-95
2023/10/02 08:05:35;;;;;;;0.00;0.00;;;;;;;20.96;60.32;100704.63;5221018;27;20033;-95
2023/10/02 08:08:10;;;;;;;1.37;0.62;;;;;;;21.12;60.33;100712.50;5219652;27;20096;-96
2023/10/02 08:10:53;;;;;;;0.55;0.55;;;;;;;21.04;60.32;100706.78;5222042;27;20053;-95
2023/10/02 08:13:35;;;;;;;0.20;0.20;;;;;;;21.25;60.33;100704.69;5224640;27;20061;-96
2023/10/02 08:16:23;;;;;;;0.37;0.37;;;;;;;21.31;60.34;100710.47;5223945;27;20148;-96
2023/10/02 08:19:05;;;;;;;0.10;0.10;;;;;;;21.49;60.35;100705.81;5224506;27;20058;-95
2023/10/02 08:21:36;;;;;;;0.35;0.35;;;;;;;21.74;60.36;100708.63;5224490;27;20112;-96
2023/10/02 08:24:03;;;;;;;0.77;0.40;;;;;;;21.87;60.37;100706.06;5220562;27;20074;-96
2023/10/02 08:26:40;;;;;;;0.00;0.00;;;;;;;21.81;60.36;100695.88;5229225;27;20064;-95
2023/10/02 08:29:09;;;;;;;0.00;0.00;;;;;;;21.88;60.37;100704.28;5260793;27;20069;-95
2023/10/02 08:31:35;;;;;;;0.00;0.00;;;;;;;22.04;60.38;100694.44;5240863;27;20099;-96
2023/10/02 08:34:05;;;;;;;0.35;0.35;;;;;;;22.15;60.38;100694.56;5240710;27;20083;-96
2023/10/02 08:36:34;;;;;;;1.80;0.68;;;;;;;22.36;60.39;100700.28;5276517;27;20124;-95
2023/10/02 08:39:00;;;;;;;1.75;1.10;;;;;;;22.40;60.39;100696.47;5239328;27;27257;-95
2023/10/02 08:41:27;;;;;;;0.70;0.70;;;;;;;22.39;60.39;100689.44;5240524;27;20107;-96
2023/10/02 08:43:53;;;;;;;0.52;0.45;;;;;;;22.43;60.40;100690.94;5258947;27;20079;-96
2023/10/02 08:46:21;;;;;;;0.17;0.17;;;;;;;22.60;60.41;100690.69;5240577;27;20387;-96
2023/10/02 08:48:56;;;;;;;4.85;0.75;;;;;;;22.63;60.41;100681.66;5258719;27;20464;-96
2023/10/02 08:51:29;;;;;;;0.20;0.20;;;;;;;22.87;60.41;100688.00;5259608;27;20793;-96
2023/10/02 08:53:58;;;;;;;0.17;0.15;;;;;;;22.86;60.42;100690.75;5242348;27;20657;-96
2023/10/02 08:56:25;;;;;;;0.43;0.43;;;;;;;22.94;60.42;100685.75;5240657;27;20074;-96
2023/10/02 08:59:15;;;;;;;0.40;0.40;;;;;;;23.14;60.43;100687.03;5259181;27;20108;-96
2023/10/02 09:01:37;;;;;;;0.75;0.43;;;;;;;23.27;60.44;100691.41;5262437;27;20050;-96
2023/10/02 09:06:58;;;;;;;0.37;0.20;;;;;;;23.39;60.44;100680.87;5261443;27;20065;-96
2023/10/02 09:11:56;;;;;;;0.50;0.50;;;;;;;23.58;60.46;100682.16;5258441;27;20398;-96
2023/10/02 09:14:24;;;;;;;0.35;0.30;;;;;;;23.61;60.46;100685.53;5259006;27;20065;-96
2023/10/02 09:20:07;;;;;;;0.13;0.13;;;;;;;23.86;60.47;100680.16;5261725;27;20065;-96
2023/10/02 09:22:41;;;;;;;0.75;0.32;;;;;;;23.95;60.48;100676.00;5272679;27;20057;-96
2023/10/02 09:25:12;;;;;;;0.00;0.00;;;;;;;24.07;60.49;100672.44;5260501;27;20419;-96
2023/10/02 09:27:54;;;;;;;0.10;0.10;;;;;;;24.28;60.49;100664.69;5259119;27;20065;-96
2023/10/02 09:30:21;;;;;;;1.17;0.95;;;;;;;24.35;60.49;100658.81;5264583;27;20118;-96
2023/10/02 09:32:51;;;;;;;0.98;0.82;;;;;;;24.43;60.50;100656.44;5244534;27;20467;-96
2023/10/02 09:38:03;;;;;;;0.20;0.20;;;;;;;24.64;60.52;100663.75;5279093;27;20060;-95
2023/10/02 09:40:29;;;;;;;0.03;0.03;;;;;;;24.74;60.52;100662.94;5244430;27;20061;-94
2023/10/02 09:43:05;;;;;;;0.03;0.03;;;;;;;24.77;60.52;100662.69;5259801;27;20057;-95
2023/10/02 09:45:35;;;;;;;0.47;0.47;;;;;;;24.71;60.52;100662.31;5241652;27;20056;-95
2023/10/02 09:48:05;;;;;;;0.00;0.00;;;;;;;24.70;60.52;100664.13;5244394;27;20610;-95
2023/10/02 09:50:32;;;;;;;0.43;0.40;;;;;;;24.68;60.51;100659.91;5260728;27;20075;-96
2023/10/02 09:53:10;;;;;;;7.32;0.73;;;;;;;24.66;60.51;100665.34;5260295;27;20050;-96
2023/10/02 09:55:41;;;;;;;0.20;0.20;;;;;;;24.83;60.53;100661.38;5260805;27;20062;-96
2023/10/02 09:58:27;;;;;;;0.93;0.73;;;;;;;25.18;60.54;100661.34;5278855;27;20065;-95
2023/10/02 10:03:53;;;;;;;0.60;0.47;;;;;;;25.40;60.55;100655.16;5278202;27;20050;-96
2023/10/02 10:06:19;;;;;;;5.15;1.50;;;;;;;25.52;60.56;100654.16;5241830;27;20065;-96
2023/10/02 10:11:43;;;;;;;0.80;0.77;;;;;;;25.67;60.57;100654.78;5280160;27;20032;-96
2023/10/02 10:14:36;;;;;;;0.20;0.20;;;;;;;25.80;60.58;100649.34;5278172;27;20041;-96
2023/10/02 10:17:18;;;;;;;0.20;0.20;;;;;;;25.86;60.59;100648.81;5262074;27;20494;-96
2023/10/02 10:20:18;;;;;;;0.20;0.20;;;;;;;26.08;60.59;100645.25;5261337;27;20061;-96
2023/10/02 10:22:50;;;;;;;0.60;0.28;;;;;;;26.09;60.59;100646.94;5278414;27;20061;-96
2023/10/02 10:28:06;;;;;;;0.20;0.20;;;;;;;26.27;60.60;100651.59;5279622;27;20745;-96
2023/10/02 10:35:40;;;;;;;1.33;0.73;;;;;;;26.43;60.61;100643.16;5281229;27;20065;-96
2023/10/02 10:40:55;;;;;;;4.53;1.92;;;;;;;26.85;60.63;100630.66;5280323;27;20103;-96
2023/10/02 10:43:26;;;;;;;0.13;0.13;;;;;;;26.77;60.63;100630.50;5261669;27;20057;-96
2023/10/02 10:45:55;;;;;;;1.37;0.62;;;;;;;26.64;60.63;100616.47;5245546;27;20050;-96
2023/10/02 10:48:24;;;;;;;0.25;0.05;;;;;;;26.89;60.64;100621.41;5243809;27;20407;-96
2023/10/02 10:51:02;;;;;;;1.08;0.55;;;;;;;27.01;60.64;100622.22;5242426;27;20061;-96
2023/10/02 10:53:28;;;;;;;0.50;0.28;;;;;;;27.04;60.65;100615.75;5264744;27;20099;-96
2023/10/02 10:56:03;;;;;;;0.40;0.40;;;;;;;26.79;60.64;100615.19;5262944;27;20120;-96
2023/10/02 10:58:43;;;;;;;1.45;0.37;;;;;;;26.95;60.65;100604.00;5265162;27;20025;-96
2023/10/02 11:01:16;;;;;;;0.30;0.28;;;;;;;27.01;60.64;100600.84;5249416;27;20065;-96
2023/10/02 11:03:58;;;;;;;1.05;0.50;;;;;;;27.07;60.65;100599.44;5248400;27;20062;-96
2023/10/02 11:06:29;;;;;;;0.28;0.17;;;;;;;27.16;60.65;100595.97;5277730;27;20059;-96
2023/10/02 11:09:16;;;;;;;3.60;0.52;;;;;;;27.12;60.65;100595.38;5244882;27;20769;-96
2023/10/02 11:11:54;;;;;;;0.13;0.13;;;;;;;27.41;60.66;100595.47;5265213;27;20065;-96
2023/10/02 11:14:44;;;;;;;0.73;0.50;;;;;;;27.36;60.67;100594.19;5245991;27;20018;-96
2023/10/02 11:17:32;;;;;;;0.47;0.47;;;;;;;27.28;60.66;100586.03;5266603;27;20049;-96
2023/10/02 11:20:08;;;;;;;0.10;0.10;;;;;;;27.37;60.66;100594.06;5268468;27;20071;-96
2023/10/02 11:23:22;;;;;;;0.20;0.20;;;;;;;27.61;60.68;100579.47;5250450;27;20107;-96
2023/10/02 11:26:21;;;;;;;;;;;;;;;;;;;;;
2023/10/02 11:29:20;;;;;;;1.77;0.70;;;;;;;27.49;60.66;100582.28;5272213;27;37487;-96
2023/10/02 11:35:41;;;;;;;0.05;0.05;;;;;;;27.57;60.67;100575.41;5292284;27;20063;-96
2023/10/02 11:39:00;;;;;;;;;;;;;;;;;;;;;
2023/10/02 11:41:52;;;;;;;3.72;0.30;;;;;;;27.53;60.67;100575.69;5285332;27;36155;-96
2023/10/02 11:44:26;;;;;;;1.08;0.30;;;;;;;27.52;60.67;100573.13;5270631;27;20113;-96
2023/10/02 11:47:34;;;;;;;1.23;1.12;;;;;;;27.59;60.68;100566.25;5250516;27;20028;-96
2023/10/02 11:50:43;;;;;;;;;;;;;;;;;;;;;
2023/10/02 11:54:21;;;;;;;0.32;0.30;;;;;;;27.26;60.65;100561.25;5285512;27;38010;-96
2023/10/02 11:57:18;;;;;;;1.40;0.20;;;;;;;27.35;60.67;100555.09;5287275;27;20413;-96
2023/10/02 12:00:45;;;;;;;32.15;0.60;;;;;;;27.38;60.67;100552.13;5275177;27;20058;-96
2023/10/02 12:03:40;;;;;;;0.03;0.03;;;;;;;27.49;60.67;100544.00;5289065;27;20106;-96
2023/10/02 12:06:38;;;;;;;0.00;0.00;;;;;;;27.54;60.67;100541.75;5268954;27;20056;-96
2023/10/02 12:13:04;;;;;;;;;;;;;;;;;;;;;
2023/10/02 12:19:38;;;;;;;;;;;;;;;;;;;;;
2023/10/02 12:22:44;;;;;;;;;;;;;;;;;;;;;
2023/10/02 12:25:44;;;;;;;5.37;1.80;;;;;;;27.84;60.69;100527.44;5266087;27;35336;-96
2023/10/02 12:29:00;;;;;;;;;;;;;;;;;;;;;
2023/10/02 12:32:34;;;;;;;;;;;;;;;;;;;;;
2023/10/02 12:35:58;;;;;;;;;;;;;;;;;;;;;
2023/10/02 12:50:32;;;;;;;;;;;;;;;;;;;;;
2023/10/02 14:20:34;;;;;;;;;;;;;;;;;;;;;
2023/10/02 14:23:37;;;;;;;0.55;0.20;;;;;;;27.38;60.67;100434.50;5333458;26;35187;-96
2023/10/02 14:26:36;;;;;;;0.00;0.00;;;;;;;27.41;60.67;100426.19;5312504;26;20057;-96
2023/10/02 14:29:52;;;;;;;;;;;;;;;;;;;;;
2023/10/02 14:33:15;;;;;;;0.13;0.13;;;;;;;27.25;60.66;100428.59;5349902;26;34489;-96
2023/10/02 14:35:53;;;;;;;0.25;0.10;;;;;;;27.12;60.66;100434.19;5327916;26;20033;-96
2023/10/02 14:38:57;;;;;;;0.80;0.30;;;;;;;27.19;60.67;100425.47;5312241;26;20121;-96
2023/10/02 14:42:04;;;;;;;1.30;0.57;;;;;;;26.97;60.65;100433.69;5316167;26;20048;-96
2023/10/02 14:44:58;;;;;;;0.10;0.10;;;;;;;26.82;60.65;100430.59;5301661;26;20068;-96
2023/10/02 14:47:53;;;;;;;;;;;;;;;;;;;;;
2023/10/02 14:51:24;;;;;;;0.10;0.10;;;;;;;26.80;60.65;100427.22;5341379;26;35642;-96
2023/10/02 14:55:09;;;;;;;0.00;0.00;;;;;;;26.58;60.63;100430.94;5338999;26;20025;-96
2023/10/02 15:01:48;;;;;;;0.20;0.20;;;;;;;26.56;60.63;100429.38;5280522;27;20032;-96
2023/10/02 15:13:32;;;;;;;;;;;;;;;;;;;;;
2023/10/02 15:16:36;;;;;;;0.08;0.08;;;;;;;26.26;60.62;100431.06;5306645;27;34774;-96
2023/10/02 15:19:18;;;;;;;;;;;;;;;26.02;60.60;100427.81;5270970;27;20100;-96
2023/10/02 15:22:02;;;;;;;0.00;0.00;;;;;;;26.12;60.61;100430.53;5286376;27;20375;-96
2023/10/02 15:25:03;;;;;;;0.30;0.30;;;;;;;25.78;60.59;100422.75;5271145;27;20061;-96
2023/10/02 15:28:06;;;;;;;0.20;0.10;;;;;;;25.71;60.59;100429.56;5290558;26;20073;-96
2023/10/02 15:36:37;;;;;;;0.00;0.00;;;;;;;25.74;60.59;100423.13;5282572;27;20036;-96
2023/10/02 15:39:24;;;;;;;0.35;0.35;;;;;;;25.43;60.57;100439.00;5273389;27;20088;-96
2023/10/02 15:42:03;;;;;;;0.00;0.00;;;;;;;25.38;60.57;100438.56;5288408;27;20029;-96
2023/10/02 15:47:38;;;;;;;0.22;0.22;;;;;;;25.38;60.57;100435.88;5278429;27;20065;-96
2023/10/02 15:50:36;;;;;;;0.00;0.00;;;;;;;25.27;60.56;100434.09;5268844;27;20140;-96
2023/10/02 15:53:23;;;;;;;0.10;0.10;;;;;;;25.17;60.56;100432.31;5303981;27;20049;-96
2023/10/02 15:55:56;;;;;;;0.52;0.52;;;;;;;24.91;60.55;100448.56;5288046;27;20410;-96
2023/10/02 15:58:27;;;;;;;0.55;0.52;;;;;;;24.91;60.55;100447.72;5284793;27;20133;-96
2023/10/02 16:00:55;;;;;;;1.27;1.08;;;;;;;24.78;60.54;100442.53;5284882;27;20057;-94
2023/10/02 16:03:26;;;;;;;1.65;0.93;;;;;;;24.73;60.53;100444.72;5271227;27;20067;-96
2023/10/02 16:05:58;;;;;;;0.43;0.43;;;;;;;24.69;60.53;100446.78;5266735;27;20065;-96
2023/10/02 16:08:26;;;;;;;0.80;0.80;;;;;;;24.49;60.52;100455.50;5283952;27;20181;-96
2023/10/02 16:10:55;;;;;;;0.28;0.28;;;;;;;24.30;60.51;100448.09;5265771;27;20053;-96
2023/10/02 16:13:33;;;;;;;1.67;0.88;;;;;;;24.13;60.51;100451.19;5266026;27;20091;-96
2023/10/02 16:16:03;;;;;;;0.00;0.00;;;;;;;24.13;60.51;100449.41;5268275;27;20123;-96
2023/10/02 16:18:29;;;;;;;0.40;0.40;;;;;;;23.98;60.50;100455.03;5267103;27;20029;-96
2023/10/02 16:20:55;;;;;;;1.35;0.55;;;;;;;23.90;60.50;100455.66;5265195;27;20053;-96
2023/10/02 16:23:21;;;;;;;0.05;0.05;;;;;;;23.71;60.48;100466.81;5282687;27;20045;-96
2023/10/02 16:25:48;;;;;;;0.57;0.20;;;;;;;23.49;60.48;100467.53;5264304;27;20057;-96
2023/10/02 16:28:15;;;;;;;0.30;0.30;;;;;;;23.35;60.47;100461.53;5264544;27;20087;-95
2023/10/02 16:30:40;;;;;;;0.13;0.13;;;;;;;23.26;60.45;100457.75;5263360;27;20065;-96
2023/10/02 16:33:06;;;;;;;0.30;0.30;;;;;;;23.07;60.45;100460.06;5262681;27;20052;-96
2023/10/02 16:35:32;;;;;;;0.17;0.13;;;;;;;23.17;60.45;100461.06;5262949;27;20069;-96
2023/10/02 16:37:59;;;;;;;0.22;0.22;;;;;;;23.25;60.46;100464.88;5263613;27;20112;-94
2023/10/02 16:40:25;;;;;;;0.00;0.00;;;;;;;22.96;60.45;100474.97;5284549;27;20053;-96
2023/10/02 16:42:53;;;;;;;1.20;0.30;;;;;;;22.95;60.44;100475.94;5263841;27;20409;-96
2023/10/02 16:45:19;;;;;;;0.60;0.43;;;;;;;22.91;60.44;100463.81;5264644;27;20065;-95
2023/10/02 16:47:45;;;;;;;1.95;1.50;;;;;;;23.17;60.45;100467.22;5265419;27;20117;-95
2023/10/02 16:50:11;;;;;;;3.85;0.30;;;;;;;23.00;60.45;100472.09;5283092;27;20112;-95
2023/10/02 16:52:43;;;;;;;0.47;0.47;;;;;;;22.93;60.44;100471.66;5264185;27;20060;-95
2023/10/02 16:55:31;;;;;;;0.75;0.62;;;;;;;23.07;60.44;100470.69;5266996;27;20053;-95
2023/10/02 16:57:57;;;;;;;0.30;0.30;;;;;;;22.59;60.43;100479.34;5283541;27;20106;-96
2023/10/02 17:00:24;;;;;;;0.15;0.15;;;;;;;22.49;60.42;100474.81;5264162;27;20061;-95
2023/10/02 17:02:51;;;;;;;0.37;0.20;;;;;;;22.33;60.42;100475.00;5264384;27;20068;-96
2023/10/02 17:05:17;;;;;;;0.00;0.00;;;;;;;22.37;60.41;100479.16;5264908;27;20065;-95
2023/10/02 17:07:44;;;;;;;2.05;1.42;;;;;;;22.28;60.41;100482.44;5264731;27;20413;-96
2023/10/02 17:10:13;;;;;;;0.55;0.52;;;;;;;22.08;60.39;100483.81;5265485;27;20053;-95
2023/10/02 17:12:40;;;;;;;1.50;0.98;;;;;;;21.98;60.39;100480.03;5284010;27;20052;-95
2023/10/02 17:15:09;;;;;;;2.47;1.23;;;;;;;21.92;60.38;100478.66;5263707;27;20132;-96
2023/10/02 17:17:37;;;;;;;0.40;0.40;;;;;;;21.83;60.38;100478.44;5263835;27;20075;-96
2023/10/02 17:20:06;;;;;;;0.20;0.20;;;;;;;21.72;60.38;100487.09;5262851;27;20061;-96
2023/10/02 17:22:37;;;;;;;1.83;1.40;;;;;;;21.73;60.38;100480.84;5263100;27;20076;-95
2023/10/02 17:25:13;;;;;;;1.60;1.50;;;;;;;21.58;60.38;100492.47;5281689;27;20115;-94
2023/10/02 17:27:43;;;;;;;2.40;1.17;;;;;;;21.50;60.37;100502.69;5279809;27;20057;-94
2023/10/02 17:30:17;;;;;;;1.65;0.93;;;;;;;21.41;60.36;100490.91;5263476;27;20052;-95
2023/10/02 17:32:47;;;;;;;0.10;0.10;;;;;;;21.35;60.36;100499.25;5263534;27;20694;-95
2023/10/02 17:35:13;;;;;;;0.75;0.75;;;;;;;21.29;60.35;100507.59;5262357;27;20060;-96
2023/10/02 17:37:39;;;;;;;1.25;0.75;;;;;;;21.25;60.36;100506.09;5262430;27;20058;-94
2023/10/02 17:40:10;;;;;;;0.55;0.55;;;;;;;21.11;60.35;100501.66;5262582;27;20049;-95
2023/10/02 17:42:38;;;;;;;0.55;0.22;;;;;;;21.26;60.36;100507.78;5263075;27;20065;-95
2023/10/02 17:45:08;;;;;;;0.75;0.55;;;;;;;21.25;60.35;100508.72;5261899;27;20052;-95
2023/10/02 17:47:37;;;;;;;0.47;0.47;;;;;;;21.19;60.35;100507.31;5263302;27;20058;-96
2023/10/02 17:50:05;;;;;;;0.85;0.52;;;;;;;21.21;60.35;100507.19;5261880;27;20126;-95
2023/10/02 17:52:31;;;;;;;0.20;0.20;;;;;;;21.11;60.34;100505.16;5261519;27;20053;-96
2023/10/02 17:54:57;;;;;;;0.00;0.00;;;;;;;21.20;60.35;100509.00;5262187;27;20745;-95
2023/10/02 17:57:24;;;;;;;0.00;0.00;;;;;;;21.03;60.34;100509.22;5262895;27;20120;-95
2023/10/02 17:59:54;;;;;;;0.55;0.43;;;;;;;20.86;60.33;100515.59;5263554;27;20025;-93
2023/10/02 18:02:20;;;;;;;0.10;0.10;;;;;;;20.89;60.34;100517.19;5263456;27;20040;-94
2023/10/02 18:04:48;;;;;;;0.32;0.32;;;;;;;20.76;60.33;100519.72;5263903;27;20071;-95
2023/10/02 18:07:15;;;;;;;0.32;0.32;;;;;;;20.66;60.32;100522.09;5265014;27;20534;-94
2023/10/02 18:09:42;;;;;;;1.55;0.57;;;;;;;20.44;60.30;100517.28;5264411;27;20061;-95
2023/10/02 18:12:09;;;;;;;1.87;1.45;;;;;;;20.49;60.32;100515.19;5264211;27;20079;-96
2023/10/02 18:14:34;;;;;;;6.32;0.57;;;;;;;20.35;60.30;100516.97;5264788;27;20065;-95
2023/10/02 18:17:01;;;;;;;2.92;1.30;;;;;;;20.15;60.30;100521.63;5264298;27;20049;-95
2023/10/02 18:19:27;;;;;;;1.33;1.00;;;;;;;20.41;60.31;100521.91;5264150;27;20049;-95
2023/10/02 18:21:53;;;;;;;0.80;0.75;;;;;;;20.24;60.30;100521.09;5263790;27;20048;-94
2023/10/02 18:24:19;;;;;;;0.50;0.50;;;;;;;20.15;60.29;100526.06;5263123;27;20065;-94
2023/10/02 18:26:45;;;;;;;0.00;0.00;;;;;;;20.14;60.29;100525.22;5263665;27;20136;-95
2023/10/02 18:29:14;;;;;;;0.43;0.43;;;;;;;19.90;60.28;100524.87;5263578;27;20057;-95
2023/10/02 18:31:48;;;;;;;3.97;1.65;;;;;;;20.08;60.30;100524.72;5264147;27;20029;-94
2023/10/02 18:34:14;;;;;;;0.30;0.30;;;;;;;19.80;60.27;100522.84;5263622;27;20109;-93
2023/10/02 18:36:42;;;;;;;6.50;1.10;;;;;;;19.67;60.27;100521.87;5264105;27;20107;-94
2023/10/02 18:39:15;;;;;;;0.20;0.20;;;;;;;19.55;60.26;100526.88;5263933;27;20064;-96
2023/10/02 18:41:41;;;;;;;5.57;0.68;;;;;;;19.62;60.27;100530.88;5265598;27;20025;-95
2023/10/02 18:44:08;;;;;;;0.55;0.45;;;;;;;19.45;60.25;100533.59;5263400;27;20117;-95
2023/10/02 18:46:37;;;;;;;0.00;0.00;;;;;;;19.29;60.24;100535.37;5264556;27;20100;-95
2023/10/02 18:49:03;;;;;;;0.20;0.20;;;;;;;19.24;60.25;100538.28;5264970;27;20057;-94
2023/10/02 18:51:30;;;;;;;0.55;0.40;;;;;;;19.20;60.24;100541.19;5264309;27;20059;-96
2023/10/02 18:54:03;;;;;;;3.50;0.90;;;;;;;19.11;60.24;100541.66;5282218;27;20390;-95
2023/10/02 18:56:33;;;;;;;0.57;0.30;;;;;;;19.04;60.23;100543.81;5265118;27;20068;-95
2023/10/02 18:58:59;;;;;;;3.83;1.00;;;;;;;18.99;60.24;100538.78;5265952;27;20787;-96
2023/10/02 19:01:28;;;;;;;0.10;0.10;;;;;;;19.09;60.24;100540.91;5264554;27;20108;-95
2023/10/02 19:03:55;;;;;;;1.20;1.10;;;;;;;19.04;60.23;100543.81;5301252;27;20057;-95
2023/10/02 19:06:22;;;;;;;0.20;0.20;;;;;;;18.98;60.23;100542.34;5264867;27;20349;-96
2023/10/02 19:08:52;;;;;;;0.45;0.45;;;;;;;18.90;60.22;100538.41;5263819;27;20183;-93
2023/10/02 19:11:30;;;;;;;0.70;0.70;;;;;;;18.85;60.22;100540.44;5265135;27;20501;-94
2023/10/02 19:13:56;;;;;;;19.50;1.05;;;;;;;18.77;60.23;100540.88;5286612;27;20409;-94
2023/10/02 19:16:22;;;;;;;0.45;0.40;;;;;;;18.60;60.20;100547.00;5267117;27;20681;-94
2023/10/02 19:18:54;;;;;;;0.73;0.70;;;;;;;18.59;60.21;100550.56;5267720;27;20052;-94
2023/10/02 19:21:24;;;;;;;1.65;0.30;;;;;;;18.42;60.20;100550.56;5268642;27;20685;-93
2023/10/02 19:23:53;;;;;;;0.17;0.17;;;;;;;18.40;60.20;100555.94;5268195;27;20128;-95
2023/10/02 19:26:23;;;;;;;5.68;0.47;;;;;;;18.38;60.20;100549.03;5268746;27;20061;-95
2023/10/02 19:28:51;;;;;;;0.45;0.40;;;;;;;18.41;60.20;100549.72;5267732;27;20070;-96
2023/10/02 19:31:19;;;;;;;1.80;0.55;;;;;;;18.28;60.19;100545.19;5268722;27;20053;-96
2023/10/02 19:33:48;;;;;;;0.35;0.10;;;;;;;18.23;60.19;100542.78;5287285;27;20093;-96
2023/10/02 19:36:15;;;;;;;0.35;0.35;;;;;;;18.34;60.19;100544.84;5267866;27;20049;-96
2023/10/02 19:38:43;;;;;;;0.00;0.00;;;;;;;18.18;60.19;100551.84;5267474;27;20017;-95
2023/10/02 19:41:18;;;;;;;0.55;0.43;;;;;;;18.18;60.19;100541.28;5303689;27;20071;-95
2023/10/02 19:43:44;;;;;;;0.73;0.55;;;;;;;18.13;60.19;100548.59;5285984;27;20621;-94
2023/10/02 19:46:11;;;;;;;1.12;0.95;;;;;;;18.03;60.18;100541.16;5267321;27;20110;-95
2023/10/02 19:48:40;;;;;;;1.33;1.23;;;;;;;18.03;60.18;100541.16;5267296;27;20117;-96
2023/10/02 19:51:14;;;;;;;0.75;0.75;;;;;;;18.02;60.18;100543.88;5268132;27;20086;-96
2023/10/02 19:53:41;;;;;;;1.35;0.73;;;;;;;17.95;60.17;100552.97;5269630;27;20072;-96
2023/10/02 19:56:06;;;;;;;0.00;0.00;;;;;;;17.93;60.18;100547.78;5268344;27;20068;-96
2023/10/02 19:58:33;;;;;;;0.70;0.70;;;;;;;17.91;60.16;100544.38;5268022;27;20508;-96
2023/10/02 20:01:05;;;;;;;0.65;0.43;;;;;;;17.87;60.17;100544.63;5286179;27;20041;-96
2023/10/02 20:03:31;;;;;;;0.10;0.10;;;;;;;17.63;60.15;100547.50;5267933;27;20061;-96
2023/10/02 20:06:08;;;;;;;0.30;0.30;;;;;;;17.60;60.15;100541.53;5268080;27;20065;-96
2023/10/02 20:08:35;;;;;;;0.00;0.00;;;;;;;17.52;60.14;100551.56;5268269;27;20049;-96
2023/10/02 20:11:01;;;;;;;0.65;0.47;;;;;;;17.68;60.16;100549.94;5268128;27;20077;-95
2023/10/02 20:13:28;;;;;;;3.10;0.65;;;;;;;17.42;60.14;100559.88;5281961;27;20128;-94
2023/10/02 20:15:56;;;;;;;5.05;0.98;;;;;;;17.31;60.14;100558.72;5300266;27;20072;-96
2023/10/02 20:18:24;;;;;;;0.10;0.10;;;;;;;17.20;60.13;100548.66;5264648;27;20132;-94
2023/10/02 20:20:51;;;;;;;1.93;0.90;;;;;;;17.27;60.13;100554.47;5264214;27;20045;-96
2023/10/02 20:23:17;;;;;;;0.60;0.60;;;;;;;17.22;60.13;100556.47;5299734;27;20771;-94
2023/10/02 20:25:43;;;;;;;0.82;0.75;;;;;;;17.28;60.13;100554.44;5263784;27;20065;-94
2023/10/02 20:28:09;;;;;;;0.08;0.08;;;;;;;17.17;60.13;100554.06;5281767;27;20026;-96
2023/10/02 20:30:39;;;;;;;0.47;0.28;;;;;;;17.05;60.12;100550.25;5264189;27;20315;-96
2023/10/02 20:33:08;;;;;;;0.00;0.00;;;;;;;17.09;60.13;100554.44;5286321;27;20092;-96
2023/10/02 20:35:38;;;;;;;0.10;0.10;;;;;;;17.06;60.12;100557.22;5268396;27;20025;-96
2023/10/02 20:38:06;;;;;;;0.00;0.00;;;;;;;16.93;60.12;100561.31;5300271;27;20049;-96
2023/10/02 20:40:32;;;;;;;0.10;0.10;;;;;;;17.02;60.12;100560.88;5266711;27;20058;-96
2023/10/02 20:43:39;;;;;;;0.28;0.28;;;;;;;16.85;60.12;100559.03;5271444;27;20056;-96
2023/10/02 20:46:07;;;;;;;0.05;0.05;;;;;;;16.83;60.11;100563.50;5283396;27;20315;-96
2023/10/02 20:48:38;;;;;;;0.08;0.08;;;;;;;16.79;60.11;100563.69;5275892;27;20405;-96
2023/10/02 20:51:09;;;;;;;0.68;0.57;;;;;;;16.68;60.10;100560.69;5267370;27;20669;-96
2023/10/02 20:53:35;;;;;;;0.68;0.52;;;;;;;16.69;60.09;100557.16;5264700;27;20112;-96
2023/10/02 20:56:02;;;;;;;0.50;0.50;;;;;;;16.59;60.09;100564.56;5265900;27;20080;-96
2023/10/02 20:58:35;;;;;;;0.93;0.35;;;;;;;16.54;60.10;100559.50;5266928;27;20032;-96
2023/10/02 21:01:07;;;;;;;0.17;0.17;;;;;;;16.56;60.10;100557.69;5264833;27;20385;-96
2023/10/02 21:03:41;;;;;;;0.85;0.85;;;;;;;16.56;60.10;100565.56;5264427;27;20112;-96
2023/10/02 21:06:06;;;;;;;0.32;0.32;;;;;;;16.60;60.10;100568.06;5265211;27;20057;-96
2023/10/02 21:08:32;;;;;;;4.65;0.80;;;;;;;16.56;60.10;100562.94;5263487;27;20883;-95
2023/10/02 21:11:05;;;;;;;0.30;0.10;;;;;;;16.48;60.09;100558.91;5263631;27;20059;-96
2023/10/02 21:13:30;;;;;;;0.03;0.03;;;;;;;16.33;60.09;100567.47;5263849;27;20087;-96
2023/10/02 21:15:56;;;;;;;0.20;0.20;;;;;;;16.31;60.08;100575.38;5263923;27;20390;-95
2023/10/02 21:18:23;;;;;;;0.10;0.10;;;;;;;16.43;60.09;100568.78;5265336;27;20567;-95
2023/10/02 21:20:51;;;;;;;0.55;0.55;;;;;;;16.29;60.08;100574.59;5264079;27;20048;-95
2023/10/02 21:23:18;;;;;;;0.25;0.22;;;;;;;16.27;60.08;100576.44;5263984;27;20053;-96
2023/10/02 21:25:44;;;;;;;0.47;0.47;;;;;;;16.14;60.07;100573.50;5263636;27;20803;-95
2023/10/02 21:28:09;;;;;;;0.50;0.50;;;;;;;16.18;60.08;100580.31;5281927;27;20045;-95
2023/10/02 21:30:35;;;;;;;1.98;1.60;;;;;;;16.30;60.08;100567.56;5264184;27;20072;-95
2023/10/02 21:33:00;;;;;;;0.00;0.00;;;;;;;16.21;60.08;100563.56;5264413;27;20107;-94
2023/10/02 21:35:26;;;;;;;2.55;0.50;;;;;;;16.15;60.07;100569.09;5264574;27;20398;-94
2023/10/02 21:37:51;;;;;;;0.00;0.00;;;;;;;15.93;60.06;100562.09;5264656;27;20123;-95
2023/10/02 21:40:17;;;;;;;0.85;0.10;;;;;;;16.06;60.06;100565.06;5264600;27;20049;-95
2023/10/02 21:42:43;;;;;;;0.17;0.17;;;;;;;16.09;60.07;100558.81;5264643;27;20071;-96
2023/10/02 21:45:09;;;;;;;0.10;0.10;;;;;;;16.12;60.07;100559.56;5284452;27;20062;-95
2023/10/02 21:47:35;;;;;;;0.22;0.22;;;;;;;16.13;60.07;100560.44;5266377;27;20147;-96
2023/10/02 21:50:01;;;;;;;0.65;0.65;;;;;;;16.22;60.07;100560.88;5264876;27;20070;-96
2023/10/02 21:52:27;;;;;;;0.05;0.05;;;;;;;16.06;60.06;100562.44;5265203;27;20067;-96
2023/10/02 21:55:25;;;;;;;0.10;0.10;;;;;;;15.90;60.05;100562.22;5267288;27;20114;-96